Time;durP1;ratioP1;P1;durP2;ratioP2;P2;SDS_P1;SDS_P2;PMS_P1;PMS_P2;Temp;Humidity;BMP_temperature;BMP_pressure;BME280_temperature;BME280_humidity;BME280_pressure;Samples;Min_cycle;Max_cycle;Signal;HPM_P1;HPM_P2
2021/11/01 00:00:05;;;;;;;2.22;0.70;;;;;;;;;;5034898;28;20017;-41
2021/11/01 00:02:30;;;;;;;1.67;1.13;;;;;;;;;;5036191;28;20040;-40
2021/11/01 00:04:55;;;;;;;1.15;0.60;;;;;;;;;;5035450;28;20021;-42
2021/11/01 00:07:21;;;;;;;1.38;0.40;;;;;;;;;;5034886;28;20020;-41
2021/11/01 00:09:46;;;;;;;0.40;0.35;;;;;;;;;;5034056;28;20456;-44
2021/11/01 00:12:13;;;;;;;1.38;0.65;;;;;;;;;;5035121;28;20018;-44
2021/11/01 00:14:39;;;;;;;2.90;0.32;;;;;;;;;;5035370;28;20060;-44
2021/11/01 00:17:04;;;;;;;1.33;0.85;;;;;;;;;;5039026;28;20047;-44
2021/11/01 00:19:30;;;;;;;2.45;0.90;;;;;;;;;;5035001;28;20408;-40
2021/11/01 00:21:55;;;;;;;5.00;1.67;;;;;;;;;;5037506;28;20025;-40
2021/11/01 00:24:20;;;;;;;1.75;0.60;;;;;;;;;;5037848;28;20132;-40
2021/11/01 00:26:46;;;;;;;8.55;1.23;;;;;;;;;;5035698;28;20430;-41
2021/11/01 00:29:11;;;;;;;5.70;1.33;;;;;;;;;;5038128;28;20104;-42
2021/11/01 00:31:37;;;;;;;4.65;1.48;;;;;;;;;;5038485;28;20053;-43
2021/11/01 00:34:02;;;;;;;1.20;0.95;;;;;;;;;;5034911;28;20025;-41
2021/11/01 00:36:28;;;;;;;3.15;1.10;;;;;;;;;;5039658;28;20552;-42
2021/11/01 00:38:53;;;;;;;5.72;1.27;;;;;;;;;;5035925;28;20508;-43
2021/11/01 00:41:19;;;;;;;7.28;0.75;;;;;;;;;;5037349;28;20021;-40
2021/11/01 00:43:44;;;;;;;1.98;0.73;;;;;;;;;;5037826;28;20116;-41
2021/11/01 00:46:10;;;;;;;6.03;1.85;;;;;;;;;;5035578;28;20083;-40
2021/11/01 00:48:36;;;;;;;1.67;1.08;;;;;;;;;;5036493;28;20076;-40
2021/11/01 00:51:01;;;;;;;1.45;1.02;;;;;;;;;;5040032;28;20080;-41
2021/11/01 00:53:31;;;;;;;7.35;2.42;;;;;;;;;;5034084;28;20492;-41
2021/11/01 00:55:57;;;;;;;1.35;0.75;;;;;;;;;;5035243;28;20074;-44
2021/11/01 00:58:23;;;;;;;3.60;0.60;;;;;;;;;;5035108;28;20028;-42
2021/11/01 01:00:49;;;;;;;2.60;1.33;;;;;;;;;;5034944;28;20532;-44
2021/11/01 01:03:15;;;;;;;2.58;1.00;;;;;;;;;;5037315;28;20021;-47
2021/11/01 01:05:44;;;;;;;8.35;1.23;;;;;;;;;;5034349;28;20379;-41
2021/11/01 01:08:13;;;;;;;1.95;0.98;;;;;;;;;;5030123;28;20018;-45
2021/11/01 01:10:39;;;;;;;2.08;1.17;;;;;;;;;;5035836;28;20021;-47
2021/11/01 01:13:05;;;;;;;3.45;0.95;;;;;;;;;;5035762;28;20063;-41
2021/11/01 01:15:37;;;;;;;4.63;1.17;;;;;;;;;;5036157;28;20099;-42
2021/11/01 01:18:08;;;;;;;2.17;1.38;;;;;;;;;;5033979;28;20025;-40
2021/11/01 01:20:33;;;;;;;;;;;;;;;;;;5037589;28;20037;-41
2021/11/01 01:22:58;;;;;;;3.53;2.00;;;;;;;;;;5035933;28;20339;-42
2021/11/01 01:25:26;;;;;;;6.32;1.70;;;;;;;;;;5034798;28;20032;-42
2021/11/01 01:27:52;;;;;;;4.40;0.88;;;;;;;;;;5036886;28;20028;-45
2021/11/01 01:30:19;;;;;;;3.80;1.83;;;;;;;;;;5037255;28;20512;-40
2021/11/01 01:32:44;;;;;;;5.43;0.50;;;;;;;;;;5036287;28;20445;-45
2021/11/01 01:35:10;;;;;;;1.58;0.40;;;;;;;;;;5035401;28;20032;-41
2021/11/01 01:37:36;;;;;;;2.88;0.68;;;;;;;;;;5038287;28;20028;-41
2021/11/01 01:40:02;;;;;;;4.80;1.40;;;;;;;;;;5040334;28;20473;-41
2021/11/01 01:42:27;;;;;;;1.70;0.82;;;;;;;;;;5038782;28;20028;-41
2021/11/01 01:44:53;;;;;;;1.02;0.63;;;;;;;;;;5035450;28;20010;-42
2021/11/01 01:47:18;;;;;;;6.55;2.72;;;;;;;;;;5040121;28;20049;-40
2021/11/01 01:49:43;;;;;;;3.97;0.95;;;;;;;;;;5038123;28;20010;-43
2021/11/01 01:52:09;;;;;;;2.50;0.93;;;;;;;;;;5042204;28;20016;-42
2021/11/01 01:54:35;;;;;;;0.95;0.60;;;;;;;;;;5038259;28;20129;-43
2021/11/01 01:57:00;;;;;;;1.92;0.45;;;;;;;;;;5039627;28;20047;-40
2021/11/01 01:59:26;;;;;;;2.58;1.05;;;;;;;;;;5040209;28;20029;-44
2021/11/01 02:01:52;;;;;;;3.05;1.13;;;;;;;;;;5036358;28;20076;-43
2021/11/01 02:04:24;;;;;;;2.20;0.93;;;;;;;;;;5039252;28;20376;-41
2021/11/01 02:06:49;;;;;;;1.50;1.13;;;;;;;;;;5037519;28;20021;-41
2021/11/01 02:09:27;;;;;;;0.82;0.50;;;;;;;;;;5038062;28;20051;-45
2021/11/01 02:12:04;;;;;;;3.10;1.30;;;;;;;;;;5035418;28;20021;-41
2021/11/01 02:14:36;;;;;;;1.23;0.65;;;;;;;;;;5038493;28;20072;-45
2021/11/01 02:17:01;;;;;;;3.47;0.70;;;;;;;;;;5040181;28;20143;-44
2021/11/01 02:19:28;;;;;;;3.08;0.90;;;;;;;;;;5040902;28;20429;-44
2021/11/01 02:21:58;;;;;;;1.27;0.77;;;;;;;;;;5039387;28;20017;-42
2021/11/01 02:24:36;;;;;;;3.53;1.25;;;;;;;;;;5038341;28;20024;-41
2021/11/01 02:27:03;;;;;;;1.77;0.80;;;;;;;;;;5042675;28;20028;-39
2021/11/01 02:29:30;;;;;;;11.80;1.90;;;;;;;;;;5041734;28;20013;-40
2021/11/01 02:31:56;;;;;;;3.13;0.88;;;;;;;;;;5037636;28;20026;-40
2021/11/01 02:34:21;;;;;;;3.13;1.05;;;;;;;;;;5038152;28;20358;-40
2021/11/01 02:36:46;;;;;;;3.88;0.80;;;;;;;;;;5033083;28;20036;-42
2021/11/01 02:39:12;;;;;;;0.93;0.77;;;;;;;;;;5036148;28;20013;-40
2021/11/01 02:41:37;;;;;;;1.08;0.60;;;;;;;;;;5039080;28;20029;-41
2021/11/01 02:44:04;;;;;;;2.25;0.70;;;;;;;;;;5038192;28;20067;-42
2021/11/01 02:46:30;;;;;;;0.57;0.43;;;;;;;;;;5036265;28;20025;-46
2021/11/01 02:48:55;;;;;;;3.40;0.80;;;;;;;;;;5037660;28;20029;-43
2021/11/01 02:51:22;;;;;;;7.32;1.33;;;;;;;;;;5036723;28;20610;-40
2021/11/01 02:53:48;;;;;;;1.55;1.02;;;;;;;;;;5038192;28;20026;-40
2021/11/01 02:56:13;;;;;;;1.60;0.93;;;;;;;;;;5039638;28;20184;-46
2021/11/01 02:58:40;;;;;;;3.67;1.38;;;;;;;;;;5038300;28;20568;-42
2021/11/01 03:01:09;;;;;;;3.50;1.13;;;;;;;;;;5038206;28;20084;-41
2021/11/01 03:03:36;;;;;;;11.05;1.80;;;;;;;;;;5038472;28;20026;-42
2021/11/01 03:06:02;;;;;;;4.05;0.85;;;;;;;;;;5037942;28;20029;-41
2021/11/01 03:08:31;;;;;;;3.20;1.27;;;;;;;;;;5038191;28;20602;-44
2021/11/01 03:10:57;;;;;;;2.85;1.00;;;;;;;;;;5037928;28;20512;-42
2021/11/01 03:13:26;;;;;;;3.47;1.50;;;;;;;;;;5037971;28;20025;-44
2021/11/01 03:15:51;;;;;;;3.33;1.23;;;;;;;;;;5038527;28;20516;-46
2021/11/01 03:18:18;;;;;;;4.10;1.25;;;;;;;;;;5040241;28;20033;-46
2021/11/01 03:20:44;;;;;;;3.47;1.65;;;;;;;;;;5036201;28;20025;-46
2021/11/01 03:23:33;;;;;;;2.53;0.80;;;;;;;;;;5038265;28;20017;-48
2021/11/01 03:26:00;;;;;;;9.75;1.42;;;;;;;;;;5039675;28;20055;-42
2021/11/01 03:28:26;;;;;;;5.20;1.80;;;;;;;;;;5033456;28;20397;-42
2021/11/01 03:30:53;;;;;;;2.63;1.38;;;;;;;;;;5035926;28;20551;-45
2021/11/01 03:33:19;;;;;;;1.83;0.98;;;;;;;;;;5040047;28;20040;-42
2021/11/01 03:35:45;;;;;;;4.20;1.10;;;;;;;;;;5037022;28;20025;-43
2021/11/01 03:38:12;;;;;;;3.60;0.85;;;;;;;;;;5037444;28;20675;-43
2021/11/01 03:40:40;;;;;;;3.70;1.27;;;;;;;;;;5040003;28;20500;-46
2021/11/01 03:43:06;;;;;;;7.50;0.50;;;;;;;;;;5038268;28;20079;-47
2021/11/01 03:45:33;;;;;;;17.35;1.80;;;;;;;;;;5039783;28;20028;-41
2021/11/01 03:48:07;;;;;;;5.72;1.70;;;;;;;;;;5033496;28;20139;-43
2021/11/01 03:50:42;;;;;;;2.67;1.38;;;;;;;;;;5034298;28;20028;-40
2021/11/01 03:53:08;;;;;;;3.33;1.45;;;;;;;;;;5039085;28;20035;-42
2021/11/01 03:55:34;;;;;;;1.38;0.88;;;;;;;;;;5039721;28;20107;-43
2021/11/01 03:58:00;;;;;;;4.78;1.85;;;;;;;;;;5034357;28;20013;-44
2021/11/01 04:00:27;;;;;;;0.88;0.52;;;;;;;;;;5037123;28;20036;-45
2021/11/01 04:02:53;;;;;;;2.92;1.48;;;;;;;;;;5039638;28;20092;-43
2021/11/01 04:05:19;;;;;;;2.60;0.95;;;;;;;;;;5032710;28;20124;-46
2021/11/01 04:07:44;;;;;;;1.65;0.70;;;;;;;;;;5035778;28;20017;-40
2021/11/01 04:10:10;;;;;;;4.57;1.40;;;;;;;;;;5039300;28;20013;-45
2021/11/01 04:12:36;;;;;;;1.33;0.85;;;;;;;;;;5036863;28;20040;-43
2021/11/01 04:15:05;;;;;;;2.33;1.27;;;;;;;;;;5037555;28;20427;-45
2021/11/01 04:17:39;;;;;;;5.03;1.17;;;;;;;;;;5036829;28;20017;-39
2021/11/01 04:22:33;;;;;;;3.03;1.33;;;;;;;;;;5034460;28;20029;-38
2021/11/01 04:24:59;;;;;;;1.90;1.30;;;;;;;;;;5036541;28;20067;-42
2021/11/01 04:27:24;;;;;;;3.72;2.03;;;;;;;;;;5033936;28;20013;-42
2021/11/01 04:29:49;;;;;;;6.72;1.52;;;;;;;;;;5038623;28;20032;-43
2021/11/01 04:33:03;;;;;;;3.72;2.28;;;;;;;;;;5037189;28;20024;-43
2021/11/01 04:37:36;;;;;;;7.68;3.03;;;;;;;;;;5034022;28;20031;-48
2021/11/01 04:53:15;;;;;;;1.65;1.15;;;;;;;;;;5034941;28;20053;-42
2021/11/01 04:55:43;;;;;;;3.08;1.58;;;;;;;;;;5031690;28;20021;-42
2021/11/01 04:58:09;;;;;;;3.67;1.88;;;;;;;;;;5030509;28;20131;-40
2021/11/01 05:00:35;;;;;;;5.35;2.05;;;;;;;;;;5033870;28;20064;-41
2021/11/01 05:03:04;;;;;;;13.52;3.83;;;;;;;;;;5036528;28;20026;-42
2021/11/01 05:05:30;;;;;;;15.70;2.88;;;;;;;;;;5035500;28;20170;-43
2021/11/01 05:07:58;;;;;;;7.53;1.75;;;;;;;;;;5032492;28;20526;-42
2021/11/01 05:10:28;;;;;;;3.10;1.88;;;;;;;;;;5040016;28;20029;-40
2021/11/01 05:12:54;;;;;;;3.13;1.83;;;;;;;;;;5039820;28;20040;-43
2021/11/01 05:15:34;;;;;;;8.20;1.75;;;;;;;;;;5039426;28;20014;-41
2021/11/01 05:18:04;;;;;;;2.85;1.63;;;;;;;;;;5040970;28;20029;-40
2021/11/01 05:20:36;;;;;;;3.70;1.52;;;;;;;;;;5039631;28;20499;-40
2021/11/01 05:23:10;;;;;;;2.88;2.00;;;;;;;;;;5040131;28;20020;-46
2021/11/01 05:30:34;;;;;;;7.38;2.38;;;;;;;;;;5036861;28;20100;-44
2021/11/01 05:33:05;;;;;;;3.45;2.08;;;;;;;;;;5039241;28;20024;-40
2021/11/01 05:35:30;;;;;;;4.32;1.70;;;;;;;;;;5038479;28;20025;-40
2021/11/01 05:37:56;;;;;;;4.43;2.38;;;;;;;;;;5041358;28;20638;-40
2021/11/01 05:40:21;;;;;;;4.15;2.15;;;;;;;;;;5043510;28;20027;-40
2021/11/01 05:42:47;;;;;;;2.38;1.30;;;;;;;;;;5040849;28;20020;-43
2021/11/01 05:45:12;;;;;;;11.32;2.38;;;;;;;;;;5040125;28;20009;-41
2021/11/01 05:47:40;;;;;;;7.63;2.53;;;;;;;;;;5040807;28;20087;-42
2021/11/01 05:50:06;;;;;;;4.55;2.30;;;;;;;;;;5041099;28;20032;-42
2021/11/01 05:52:33;;;;;;;5.57;2.10;;;;;;;;;;5040119;28;20025;-41
2021/11/01 05:55:08;;;;;;;10.35;2.90;;;;;;;;;;5036930;28;20025;-43
2021/11/01 06:00:19;;;;;;;14.18;3.15;;;;;;;;;;5038803;28;20439;-41
2021/11/01 06:15:51;;;;;;;10.45;3.85;;;;;;;;;;5034104;28;20028;-40
2021/11/01 06:18:17;;;;;;;8.85;4.25;;;;;;;;;;5038370;28;20025;-40
2021/11/01 06:20:42;;;;;;;7.65;2.45;;;;;;;;;;5038881;28;20017;-42
2021/11/01 06:23:08;;;;;;;5.63;2.53;;;;;;;;;;5041661;28;20025;-45
2021/11/01 06:25:33;;;;;;;11.63;2.88;;;;;;;;;;5035859;28;20017;-41
2021/11/01 06:27:59;;;;;;;10.70;3.05;;;;;;;;;;5036191;28;20045;-41
2021/11/01 06:30:28;;;;;;;5.35;3.78;;;;;;;;;;5038021;28;20051;-48
2021/11/01 06:43:26;;;;;;;5.90;1.50;;;;;;;;;;5039143;28;20100;-44
2021/11/01 06:51:40;;;;;;;2.13;1.48;;;;;;;;;;5036604;28;20064;-41
2021/11/01 07:15:36;;;;;;;5.35;0.85;;;;;;;;;;5037273;28;20082;-42
2021/11/01 07:18:10;;;;;;;3.03;1.13;;;;;;;;;;5034702;28;20017;-62
2021/11/01 08:24:15;;;;;;;3.00;0.70;;;;;;;;;;5034381;28;20082;-50
2021/11/01 08:47:06;;;;;;;7.38;2.00;;;;;;;;;;5036152;28;20044;-47
2021/11/01 09:02:42;;;;;;;2.92;1.60;;;;;;;;;;5033945;28;20729;-48
2021/11/01 09:05:31;;;;;;;8.30;2.03;;;;;;;;;;5035434;28;20032;-47
2021/11/01 09:26:15;;;;;;;5.70;2.67;;;;;;;;;;5036006;28;20178;-44
2021/11/01 09:28:49;;;;;;;9.77;2.72;;;;;;;;;;5036878;28;20025;-45
2021/11/01 09:36:55;;;;;;;3.40;1.13;;;;;;;;;;5034010;28;20506;-45
2021/11/01 09:40:52;;;;;;;2.40;1.27;;;;;;;;;;5034065;28;20479;-48
2021/11/01 09:42:06;;;;;;;0.80;0.40;;;;;;;;;;5033597;28;20396;-46
2021/11/01 09:44:32;;;;;;;0.80;0.35;;;;;;;;;;5034037;28;20026;-44
2021/11/01 09:46:58;;;;;;;1.60;0.93;;;;;;;;;;5032771;28;20021;-47
2021/11/01 09:49:25;;;;;;;3.13;2.25;;;;;;;;;;5034902;28;20033;-45
2021/11/01 09:51:51;;;;;;;1.58;1.15;;;;;;;;;;5030647;28;20030;-44
2021/11/01 09:54:21;;;;;;;2.92;1.00;;;;;;;;;;5035740;28;20021;-47
2021/11/01 09:59:24;;;;;;;1.52;0.95;;;;;;;;;;5038666;28;20020;-46
2021/11/01 10:01:52;;;;;;;1.85;0.70;;;;;;;;;;5039128;28;20027;-49
2021/11/01 10:04:22;;;;;;;0.90;0.75;;;;;;;;;;5038813;28;20060;-48
2021/11/01 10:07:00;;;;;;;8.25;1.67;;;;;;;;;;5033309;28;20029;-46
2021/11/01 10:09:29;;;;;;;3.55;0.60;;;;;;;;;;5034782;28;20044;-49
2021/11/01 10:11:54;;;;;;;3.10;1.88;;;;;;;;;;5037155;28;20532;-48
2021/11/01 10:14:21;;;;;;;2.72;1.10;;;;;;;;;;5034424;28;20029;-48
2021/11/01 10:19:35;;;;;;;4.82;2.17;;;;;;;;;;5035304;28;20099;-48
2021/11/01 10:22:02;;;;;;;4.38;0.98;;;;;;;;;;5035966;28;20021;-47
2021/11/01 10:24:29;;;;;;;3.80;2.03;;;;;;;;;;5032898;28;20065;-47
2021/11/01 10:26:56;;;;;;;6.30;2.85;;;;;;;;;;5036749;28;20033;-48
2021/11/01 10:29:22;;;;;;;8.05;2.33;;;;;;;;;;5035766;28;20082;-47
2021/11/01 10:31:47;;;;;;;6.55;4.88;;;;;;;;;;5035472;28;20025;-47
2021/11/01 10:34:14;;;;;;;3.28;1.80;;;;;;;;;;5033795;28;20431;-49
2021/11/01 10:36:40;;;;;;;1.27;0.90;;;;;;;;;;5033617;28;20102;-44
2021/11/01 10:39:09;;;;;;;2.83;1.58;;;;;;;;;;5037943;28;20081;-47
2021/11/01 10:41:47;;;;;;;4.43;1.67;;;;;;;;;;5044099;28;20013;-44
2021/11/01 11:11:18;;;;;;;7.97;3.00;;;;;;;;;;5040522;28;20051;-49
2021/11/01 11:13:49;;;;;;;3.63;2.13;;;;;;;;;;5041386;28;20110;-48
2021/11/01 11:16:26;;;;;;;7.05;4.07;;;;;;;;;;5042145;28;20031;-48
2021/11/01 11:27:16;;;;;;;1.33;0.80;;;;;;;;;;5041427;28;20472;-46
2021/11/01 11:38:35;;;;;;;2.60;0.90;;;;;;;;;;5037019;28;19947;-47
2021/11/01 11:42:16;;;;;;;4.80;0.75;;;;;;;;;;5041453;28;20071;-48
2021/11/01 11:44:01;;;;;;;2.72;1.42;;;;;;;;;;5035030;28;20028;-49
2021/11/01 11:49:18;;;;;;;5.72;1.42;;;;;;;;;;5037888;28;20056;-43
2021/11/01 11:52:13;;;;;;;0.77;0.40;;;;;;;;;;5039879;28;20273;-46
2021/11/01 11:54:42;;;;;;;8.07;1.77;;;;;;;;;;5028823;28;20029;-48
2021/11/01 11:57:25;;;;;;;2.08;1.08;;;;;;;;;;5038161;28;20115;-48
2021/11/01 11:59:53;;;;;;;6.32;0.80;;;;;;;;;;5028555;28;20048;-51
2021/11/01 12:02:39;;;;;;;1.05;0.93;;;;;;;;;;5034169;28;20276;-47
2021/11/01 12:05:23;;;;;;;2.63;0.35;;;;;;;;;;5030932;28;20677;-43
2021/11/01 12:07:59;;;;;;;3.65;0.88;;;;;;;;;;5034883;28;20723;-46
2021/11/01 12:18:40;;;;;;;0.47;0.20;;;;;;;;;;5032625;28;20087;-49
2021/11/01 12:21:05;;;;;;;1.58;0.55;;;;;;;;;;5036942;28;20048;-44
2021/11/01 12:23:57;;;;;;;22.45;1.45;;;;;;;;;;5032742;28;20469;-45
2021/11/01 12:26:24;;;;;;;2.47;0.95;;;;;;;;;;5033998;28;20312;-46
2021/11/01 12:28:50;;;;;;;2.47;0.70;;;;;;;;;;5030921;28;20030;-46
2021/11/01 12:31:16;;;;;;;0.60;0.22;;;;;;;;;;5031098;28;20056;-48
2021/11/01 12:34:01;;;;;;;2.05;0.60;;;;;;;;;;5029523;28;20493;-49
2021/11/01 12:36:32;;;;;;;3.17;0.60;;;;;;;;;;5035458;28;20029;-47
2021/11/01 12:39:12;;;;;;;1.00;0.40;;;;;;;;;;5032393;28;20057;-51
2021/11/01 12:41:52;;;;;;;4.20;1.13;;;;;;;;;;5032929;28;20711;-45
2021/11/01 12:58:04;;;;;;;7.47;1.45;;;;;;;;;;5030608;28;20035;-51
2021/11/01 13:00:37;;;;;;;0.60;0.20;;;;;;;;;;5036059;28;20033;-50
2021/11/01 13:03:16;;;;;;;8.48;0.75;;;;;;;;;;5031073;28;20025;-49
2021/11/01 13:05:44;;;;;;;1.75;0.88;;;;;;;;;;5032113;28;20018;-44
2021/11/01 13:08:12;;;;;;;6.28;0.95;;;;;;;;;;5035616;28;20032;-48
2021/11/01 13:18:28;;;;;;;2.88;0.60;;;;;;;;;;5035642;28;20391;-48
2021/11/01 13:20:58;;;;;;;3.42;0.95;;;;;;;;;;5031951;28;20013;-50
2021/11/01 13:23:26;;;;;;;1.73;0.35;;;;;;;;;;5035431;28;20083;-45
2021/11/01 13:34:48;;;;;;;2.65;0.65;;;;;;;;;;5038527;28;20507;-46
2021/11/01 13:39:43;;;;;;;3.75;0.40;;;;;;;;;;5044210;28;20109;-50
2021/11/01 13:42:09;;;;;;;3.33;0.70;;;;;;;;;;5036825;28;20582;-51
2021/11/01 13:44:34;;;;;;;3.88;0.73;;;;;;;;;;5038235;28;20131;-47
2021/11/01 13:47:02;;;;;;;2.85;0.38;;;;;;;;;;5037613;28;21390;-45
2021/11/01 13:49:28;;;;;;;2.80;0.95;;;;;;;;;;5036332;28;20021;-47
2021/11/01 13:51:53;;;;;;;2.47;0.88;;;;;;;;;;5041338;28;20009;-49
2021/11/01 13:54:40;;;;;;;1.23;0.50;;;;;;;;;;5041510;28;20036;-53
2021/11/01 13:57:06;;;;;;;2.05;0.22;;;;;;;;;;5039900;28;20036;-51
2021/11/01 13:59:47;;;;;;;1.27;0.40;;;;;;;;;;5038558;28;20024;-50
2021/11/01 14:16:49;;;;;;;0.00;0.00;;;;;;;;;;5059245;28;20449;-48
2021/11/01 16:19:58;;;;;;;4.47;1.30;;;;;;;;;;5035041;28;20108;-48
2021/11/01 16:22:24;;;;;;;4.47;1.10;;;;;;;;;;5038438;28;20095;-51
2021/11/01 16:24:49;;;;;;;1.92;0.63;;;;;;;;;;5040704;28;20041;-49
2021/11/01 16:27:16;;;;;;;1.88;0.65;;;;;;;;;;5032781;28;20420;-46
2021/11/01 16:32:20;;;;;;;11.23;2.75;;;;;;;;;;5035989;28;20082;-49
2021/11/01 16:34:48;;;;;;;4.20;2.03;;;;;;;;;;5036097;28;20045;-45
2021/11/01 16:40:10;;;;;;;1.83;0.98;;;;;;;;;;5041225;28;20040;-49
2021/11/01 16:42:37;;;;;;;5.03;1.65;;;;;;;;;;5032742;28;20048;-46
2021/11/01 16:45:10;;;;;;;10.27;3.00;;;;;;;;;;5032139;28;20024;-46
2021/11/01 16:47:35;;;;;;;2.20;1.42;;;;;;;;;;5039236;28;20040;-49
2021/11/01 16:50:03;;;;;;;3.58;1.52;;;;;;;;;;5037857;28;20490;-51
2021/11/01 16:52:28;;;;;;;2.42;1.42;;;;;;;;;;5039340;28;20029;-47
2021/11/01 16:54:56;;;;;;;8.20;1.92;;;;;;;;;;5035653;28;20086;-48
2021/11/01 16:57:25;;;;;;;2.58;1.00;;;;;;;;;;5033152;28;20031;-46
2021/11/01 17:00:06;;;;;;;1.80;0.68;;;;;;;;;;5038653;28;20017;-52
2021/11/01 17:26:35;;;;;;;10.70;1.67;;;;;;;;;;5042139;28;20017;-52
2021/11/01 17:37:19;;;;;;;5.97;3.58;;;;;;;;;;5042200;28;20522;-50
2021/11/01 18:51:30;;;;;;;8.05;1.35;;;;;;;;;;5039640;28;20150;-41
2021/11/01 18:54:02;;;;;;;2.75;1.27;;;;;;;;;;5032758;28;20113;-43
2021/11/01 18:56:34;;;;;;;2.83;2.10;;;;;;;;;;5032962;28;20032;-42
2021/11/01 18:59:01;;;;;;;5.07;1.50;;;;;;;;;;5032952;28;20032;-41
2021/11/01 19:01:27;;;;;;;3.10;1.10;;;;;;;;;;5032923;28;20025;-43
2021/11/01 19:03:55;;;;;;;6.00;3.35;;;;;;;;;;5031807;28;20022;-41
2021/11/01 20:06:53;;;;;;;12.23;5.22;;;;;;;;;;5036665;28;20083;-42
2021/11/01 20:09:56;;;;;;;28.58;7.10;;;;;;;;;;5033270;28;20087;-45
2021/11/01 21:25:58;;;;;;;1.33;0.82;;;;;;;;;;5035004;28;20097;-45
2021/11/01 21:28:24;;;;;;;8.75;1.25;;;;;;;;;;5036923;28;20017;-45
2021/11/01 21:30:50;;;;;;;2.83;1.25;;;;;;;;;;5035488;28;20548;-43
2021/11/01 21:33:19;;;;;;;1.83;0.82;;;;;;;;;;5030633;28;20716;-43
2021/11/01 21:35:48;;;;;;;6.03;1.58;;;;;;;;;;5035502;28;20021;-47
2021/11/01 21:38:13;;;;;;;1.15;0.60;;;;;;;;;;5036613;28;20025;-47
2021/11/01 21:40:40;;;;;;;3.58;1.00;;;;;;;;;;5034442;28;20029;-48
2021/11/01 21:43:05;;;;;;;1.77;0.93;;;;;;;;;;5033063;28;20534;-45
2021/11/01 21:45:30;;;;;;;2.75;0.80;;;;;;;;;;5036774;28;20021;-43
2021/11/01 21:47:56;;;;;;;6.90;1.15;;;;;;;;;;5033620;28;20930;-42
2021/11/01 21:50:21;;;;;;;7.18;1.15;;;;;;;;;;5032971;28;20104;-41
2021/11/01 21:52:49;;;;;;;6.45;1.15;;;;;;;;;;5040968;28;20039;-45
2021/11/01 21:55:16;;;;;;;1.85;0.70;;;;;;;;;;5038073;28;20108;-42
2021/11/01 21:57:47;;;;;;;3.78;1.02;;;;;;;;;;5038644;28;20523;-42
2021/11/01 22:24:57;;;;;;;2.42;1.95;;;;;;;;;;5034190;28;20025;-42
2021/11/01 22:58:39;;;;;;;1.65;1.30;;;;;;;;;;5035618;28;20033;-41
2021/11/01 23:01:25;;;;;;;6.95;2.15;;;;;;;;;;5034872;28;20024;-41
2021/11/01 23:33:31;;;;;;;3.70;2.42;;;;;;;;;;5034076;28;20032;-44
2021/11/01 23:35:56;;;;;;;8.20;2.10;;;;;;;;;;5032650;28;20021;-44
2021/11/01 23:38:22;;;;;;;3.00;1.48;;;;;;;;;;5031792;28;20517;-42
2021/11/01 23:40:47;;;;;;;2.92;1.30;;;;;;;;;;5034685;28;20013;-41
2021/11/01 23:43:13;;;;;;;2.35;1.05;;;;;;;;;;5033692;28;20044;-43
2021/11/01 23:45:43;;;;;;;2.22;1.20;;;;;;;;;;5034436;28;20488;-43
2021/11/01 23:48:08;;;;;;;2.28;0.88;;;;;;;;;;5032946;28;20071;-44
2021/11/01 23:50:34;;;;;;;0.82;0.43;;;;;;;;;;5035530;28;20464;-41
2021/11/01 23:53:10;;;;;;;3.25;2.05;;;;;;;;;;5041600;28;20060;-41
2021/11/01 23:55:35;;;;;;;7.38;1.58;;;;;;;;;;5034637;28;20112;-41
2021/11/01 23:58:04;;;;;;;7.78;1.67;;;;;;;;;;5037382;28;20109;-44
